createdAt,value
2018-12-23T00:00:01.251Z,25.10
2018-12-23T00:02:29.229Z,24.53
2018-12-23T00:04:57.738Z,24.07
2018-12-23T00:07:26.326Z,23.57
2018-12-23T00:09:54.769Z,20.47
2018-12-23T00:12:23.638Z,22.87
2018-12-23T00:14:52.270Z,21.33
2018-12-23T00:17:20.877Z,20.73
2018-12-23T00:19:49.570Z,20.10
2018-12-23T00:22:18.157Z,20.43
2018-12-23T00:24:46.600Z,22.27
2018-12-23T00:27:15.037Z,20.73
2018-12-23T00:29:43.286Z,22.90
2018-12-23T00:32:11.932Z,22.53
2018-12-23T00:34:40.525Z,21.67
2018-12-23T00:37:08.994Z,20.23
2018-12-23T00:39:37.636Z,19.83
2018-12-23T00:42:06.286Z,22.00
2018-12-23T00:44:34.897Z,23.70
2018-12-23T00:47:03.481Z,22.60
2018-12-23T00:49:31.977Z,23.73
2018-12-23T00:52:00.672Z,21.10
2018-12-23T00:54:29.274Z,20.73
2018-12-23T00:56:57.909Z,19.53
2018-12-23T00:59:26.521Z,19.23
2018-12-23T01:01:54.926Z,18.03
2018-12-23T01:04:23.395Z,18.20
2018-12-23T01:06:51.840Z,18.20
2018-12-23T01:09:20.501Z,15.90
2018-12-23T01:11:48.909Z,17.53
2018-12-23T01:14:17.586Z,16.83
2018-12-23T01:16:46.196Z,16.97
2018-12-23T01:19:14.990Z,18.90
2018-12-23T01:21:43.466Z,17.73
2018-12-23T01:24:12.162Z,16.73
2018-12-23T01:26:40.762Z,18.80
2018-12-23T01:29:08.754Z,19.07
2018-12-23T01:31:37.225Z,18.07
2018-12-23T01:34:05.855Z,19.53
2018-12-23T01:36:34.478Z,18.47
2018-12-23T01:39:03.410Z,19.67
2018-12-23T01:41:31.903Z,19.30
2018-12-23T01:44:00.423Z,21.20
2018-12-23T01:46:29.202Z,21.07
2018-12-23T01:48:57.682Z,20.23
2018-12-23T01:51:26.306Z,20.23
2018-12-23T01:53:54.957Z,20.10
2018-12-23T01:56:23.688Z,21.27
2018-12-23T01:58:51.492Z,19.93
2018-12-23T02:01:19.870Z,19.13
2018-12-23T02:03:48.526Z,19.00
2018-12-23T02:06:17.152Z,19.10
2018-12-23T02:08:45.812Z,17.80
2018-12-23T02:11:14.441Z,18.60
2018-12-23T02:13:42.254Z,16.37
2018-12-23T02:16:10.072Z,17.43
2018-12-23T02:18:38.561Z,16.73
2018-12-23T02:21:07.344Z,17.07
2018-12-23T02:23:35.844Z,17.00
2018-12-23T02:26:04.488Z,14.60
2018-12-23T02:28:33.161Z,14.50
2018-12-23T02:31:01.807Z,14.30
2018-12-23T02:33:29.759Z,14.90
2018-12-23T02:35:57.607Z,14.03
2018-12-23T02:38:26.126Z,14.87
2018-12-23T02:40:54.528Z,15.77
2018-12-23T02:43:23.321Z,13.30
2018-12-23T02:45:51.793Z,15.87
2018-12-23T02:48:20.433Z,14.40
2018-12-23T02:50:49.065Z,16.20
2018-12-23T02:53:17.869Z,14.30
2018-12-23T02:55:46.118Z,15.67
2018-12-23T02:58:14.607Z,14.17
2018-12-23T03:00:43.284Z,15.30
2018-12-23T03:03:11.850Z,14.63
2018-12-23T03:05:40.505Z,15.20
2018-12-23T03:08:09.129Z,15.73
2018-12-23T03:10:37.750Z,16.07
2018-12-23T03:13:06.244Z,16.47
2018-12-23T03:15:34.858Z,14.27
2018-12-23T03:18:03.297Z,15.10
2018-12-23T03:20:31.132Z,15.80
2018-12-23T03:22:59.791Z,17.70
2018-12-23T03:25:28.412Z,15.80
2018-12-23T03:27:57.071Z,15.93
2018-12-23T03:30:25.670Z,17.20
2018-12-23T03:32:54.480Z,16.67
2018-12-23T03:35:22.338Z,16.00
2018-12-23T03:37:50.149Z,15.90
2018-12-23T03:40:18.649Z,15.47
2018-12-23T03:42:46.890Z,16.20
2018-12-23T03:45:15.559Z,16.77
2018-12-23T03:47:44.292Z,18.03
2018-12-23T03:50:12.829Z,17.70
2018-12-23T03:52:41.446Z,18.20
2018-12-23T03:55:10.070Z,19.57
2018-12-23T03:57:38.893Z,19.00
2018-12-23T04:00:07.389Z,21.33
2018-12-23T04:02:35.998Z,20.60
2018-12-23T04:05:04.693Z,21.90
2018-12-23T04:07:33.257Z,21.27
2018-12-23T04:10:01.904Z,21.53
2018-12-23T04:12:30.556Z,21.43
2018-12-23T04:14:59.175Z,18.80
2018-12-23T04:17:27.185Z,18.37
2018-12-23T04:19:55.669Z,18.87
2018-12-23T04:22:24.310Z,19.33
2018-12-23T04:24:52.730Z,19.77
2018-12-23T04:27:21.305Z,18.97
2018-12-23T04:29:49.818Z,20.60
2018-12-23T04:32:18.256Z,19.87
2018-12-23T04:34:47.050Z,21.10
2018-12-23T04:37:15.557Z,19.13
2018-12-23T04:39:44.172Z,18.83
2018-12-23T04:42:12.789Z,19.53
2018-12-23T04:44:41.244Z,19.90
2018-12-23T04:47:09.701Z,18.40
2018-12-23T04:49:38.322Z,19.40
2018-12-23T04:52:06.721Z,19.87
2018-12-23T04:54:35.215Z,20.23
2018-12-23T04:57:03.837Z,18.73
2018-12-23T04:59:32.212Z,20.70
2018-12-23T05:02:00.702Z,19.07
2018-12-23T05:04:29.153Z,20.23
2018-12-23T05:06:57.816Z,19.30
2018-12-23T05:09:26.459Z,18.90
2018-12-23T05:11:55.068Z,19.80
2018-12-23T05:14:23.717Z,19.93
2018-12-23T05:16:52.355Z,20.17
2018-12-23T05:19:20.965Z,20.90
2018-12-23T05:21:49.382Z,20.33
2018-12-23T05:24:17.639Z,19.70
2018-12-23T05:26:46.109Z,20.57
2018-12-23T05:29:14.720Z,20.27
2018-12-23T05:31:43.287Z,20.73
2018-12-23T05:34:11.586Z,20.20
2018-12-23T05:36:40.032Z,20.50
2018-12-23T05:39:08.497Z,18.90
2018-12-23T05:41:37.160Z,18.57
2018-12-23T05:44:05.521Z,17.60
2018-12-23T05:46:34.001Z,17.37
2018-12-23T05:49:02.630Z,16.50
2018-12-23T05:51:30.446Z,18.37
2018-12-23T05:53:58.929Z,19.13
2018-12-23T05:56:27.348Z,18.63
2018-12-23T05:58:55.789Z,17.90
2018-12-23T06:01:24.262Z,17.53
2018-12-23T06:03:52.905Z,23.67
2018-12-23T06:06:21.548Z,21.23
2018-12-23T06:08:49.952Z,20.40
2018-12-23T06:11:18.426Z,20.37
2018-12-23T06:13:46.857Z,20.50
2018-12-23T06:16:15.642Z,18.47
2018-12-23T06:18:44.140Z,20.67
2018-12-23T06:21:12.754Z,18.83
2018-12-23T06:23:41.415Z,19.17
2018-12-23T06:26:10.047Z,19.77
2018-12-23T06:28:38.677Z,18.90
2018-12-23T06:31:07.320Z,19.13
2018-12-23T06:33:35.962Z,19.17
2018-12-23T06:36:04.406Z,21.10
2018-12-23T06:38:34.565Z,19.57
2018-12-23T06:41:03.220Z,19.10
2018-12-23T06:43:31.851Z,19.87
2018-12-23T06:46:00.353Z,22.57
2018-12-23T06:48:28.975Z,20.43
2018-12-23T06:50:57.576Z,22.57
2018-12-23T06:53:25.975Z,20.40
2018-12-23T06:55:54.445Z,22.10
2018-12-23T06:58:23.157Z,20.60
2018-12-23T07:00:51.736Z,20.20
2018-12-23T07:03:19.571Z,20.87
2018-12-23T07:05:47.412Z,21.00
2018-12-23T07:08:15.273Z,20.87
2018-12-23T07:10:43.114Z,20.67
2018-12-23T07:13:10.962Z,21.93
2018-12-23T07:15:38.797Z,19.63
2018-12-23T07:18:06.669Z,19.87
2018-12-23T07:20:34.497Z,20.20
2018-12-23T07:23:02.960Z,20.60
2018-12-23T07:25:31.533Z,19.13
2018-12-23T07:28:00.026Z,20.03
2018-12-23T07:30:28.475Z,19.97
2018-12-23T07:32:57.122Z,19.53
2018-12-23T07:35:25.754Z,21.13
2018-12-23T07:37:54.195Z,19.40
2018-12-23T07:40:22.848Z,21.07
2018-12-23T07:42:51.453Z,19.43
2018-12-23T07:45:20.252Z,20.00
2018-12-23T07:47:48.725Z,20.47
2018-12-23T07:50:17.538Z,20.33
2018-12-23T07:52:46.005Z,21.20
2018-12-23T07:55:14.649Z,21.40
2018-12-23T07:57:43.084Z,21.07
2018-12-23T08:00:12.249Z,21.20
2018-12-23T08:02:40.752Z,20.53
2018-12-23T08:05:09.199Z,20.80
2018-12-23T08:07:37.666Z,19.93
2018-12-23T08:10:05.578Z,19.37
2018-12-23T08:12:33.622Z,19.10
2018-12-23T08:15:01.662Z,17.67
2018-12-23T08:17:29.669Z,18.20
2018-12-23T08:19:57.592Z,19.53
2018-12-23T08:22:26.605Z,18.93
2018-12-23T08:24:57.064Z,19.57
2018-12-23T08:27:25.437Z,19.00
2018-12-23T08:29:53.397Z,17.27
2018-12-23T08:32:21.384Z,18.53
2018-12-23T08:34:49.214Z,17.33
2018-12-23T08:37:17.034Z,16.27
2018-12-23T08:39:44.848Z,16.53
2018-12-23T08:42:13.465Z,15.63
2018-12-23T08:44:42.091Z,13.47
2018-12-23T08:47:10.869Z,13.17
2018-12-23T08:49:39.570Z,13.23
2018-12-23T08:52:07.444Z,13.63
2018-12-23T08:54:35.409Z,13.00
2018-12-23T08:57:03.247Z,12.60
2018-12-23T08:59:31.110Z,14.07
2018-12-23T09:01:59.018Z,11.93
2018-12-23T09:04:26.898Z,13.47
2018-12-23T09:06:54.813Z,13.80
2018-12-23T09:09:22.743Z,14.13
2018-12-23T09:11:50.634Z,13.73
2018-12-23T09:14:18.502Z,14.00
2018-12-23T09:16:46.350Z,14.60
2018-12-23T09:19:14.233Z,14.87
2018-12-23T09:21:42.058Z,15.80
2018-12-23T09:24:09.941Z,15.23
2018-12-23T09:26:37.880Z,14.47
2018-12-23T09:29:05.766Z,14.20
2018-12-23T09:31:33.616Z,15.70
2018-12-23T09:34:01.470Z,14.40
2018-12-23T09:36:29.401Z,13.83
2018-12-23T09:38:57.227Z,12.87
2018-12-23T09:41:25.046Z,14.27
2018-12-23T09:43:52.900Z,13.20
2018-12-23T09:46:20.758Z,12.90
2018-12-23T09:48:48.596Z,13.17
2018-12-23T09:51:16.494Z,13.90
2018-12-23T09:53:44.350Z,13.33
2018-12-23T09:56:12.165Z,13.23
2018-12-23T09:58:40.116Z,12.77
2018-12-23T10:01:07.937Z,12.93
2018-12-23T10:03:36.143Z,12.83
2018-12-23T10:06:04.017Z,12.90
2018-12-23T10:08:31.854Z,12.33
2018-12-23T10:10:59.695Z,12.77
2018-12-23T10:13:27.518Z,13.57
2018-12-23T10:15:55.366Z,13.67
2018-12-23T10:18:23.213Z,13.43
2018-12-23T10:20:51.074Z,11.97
2018-12-23T10:23:18.894Z,12.83
2018-12-23T10:25:47.057Z,11.63
2018-12-23T10:28:15.000Z,10.90
2018-12-23T10:30:42.900Z,12.27
2018-12-23T10:33:10.725Z,11.00
2018-12-23T10:35:38.545Z,11.33
2018-12-23T10:38:06.394Z,10.87
2018-12-23T10:40:34.270Z,13.03
2018-12-23T10:43:02.115Z,11.50
2018-12-23T10:45:29.950Z,11.93
2018-12-23T10:48:04.345Z,10.83
2018-12-23T10:50:32.241Z,9.77
2018-12-23T10:53:00.068Z,10.10
2018-12-23T10:55:27.914Z,10.77
2018-12-23T10:57:55.811Z,10.53
2018-12-23T11:00:23.669Z,9.00
2018-12-23T11:02:51.539Z,9.40
2018-12-23T11:05:20.311Z,10.27
2018-12-23T11:07:48.779Z,10.07
2018-12-23T11:10:17.579Z,9.67
2018-12-23T11:12:46.115Z,10.10
2018-12-23T11:15:14.497Z,10.70
2018-12-23T11:17:43.254Z,10.13
2018-12-23T11:20:11.524Z,9.60
2018-12-23T11:22:39.993Z,9.17
2018-12-23T11:25:08.666Z,9.77
2018-12-23T11:27:37.292Z,8.97
2018-12-23T11:30:06.479Z,8.40
2018-12-23T11:32:34.979Z,9.30
2018-12-23T11:35:03.676Z,7.73
2018-12-23T11:37:32.230Z,8.00
2018-12-23T11:40:01.022Z,7.47
2018-12-23T11:42:29.493Z,7.77
2018-12-23T11:44:58.309Z,8.17
2018-12-23T11:47:26.951Z,8.97
2018-12-23T11:49:55.585Z,8.53
2018-12-23T11:52:24.040Z,8.80
2018-12-23T11:54:52.691Z,8.20
2018-12-23T11:57:21.053Z,8.30
2018-12-23T11:59:49.583Z,8.43
2018-12-23T12:02:18.235Z,8.23
2018-12-23T12:04:46.070Z,7.90
2018-12-23T12:07:13.965Z,8.57
2018-12-23T12:09:41.837Z,7.60
2018-12-23T12:12:09.956Z,8.40
2018-12-23T12:14:37.900Z,10.47
2018-12-23T12:17:05.746Z,10.67
2018-12-23T12:19:33.647Z,8.33
2018-12-23T12:22:02.205Z,7.57
2018-12-23T12:24:30.607Z,7.20
2018-12-23T12:26:59.265Z,6.73
2018-12-23T12:29:27.697Z,6.60
2018-12-23T12:31:56.109Z,6.63
2018-12-23T12:34:24.605Z,6.43
2018-12-23T12:36:53.197Z,6.10
2018-12-23T12:39:21.908Z,6.57
2018-12-23T12:41:50.496Z,6.40
2018-12-23T12:44:20.515Z,6.63
2018-12-23T12:46:48.297Z,5.87
2018-12-23T12:49:16.148Z,6.87
2018-12-23T12:51:43.999Z,7.30
2018-12-23T12:54:11.878Z,5.93
2018-12-23T12:56:40.303Z,5.90
2018-12-23T12:59:08.607Z,6.50
2018-12-23T13:01:37.379Z,6.17
2018-12-23T13:04:05.857Z,6.17
2018-12-23T13:06:34.505Z,6.30
2018-12-23T13:09:03.840Z,6.73
2018-12-23T13:11:31.937Z,6.60
2018-12-23T13:13:59.921Z,6.10
2018-12-23T13:16:27.841Z,6.20
2018-12-23T13:18:56.494Z,6.63
2018-12-23T13:21:25.146Z,5.97
2018-12-23T13:23:54.319Z,6.33
2018-12-23T13:26:22.826Z,6.40
2018-12-23T13:28:51.331Z,6.97
2018-12-23T13:31:19.185Z,6.57
2018-12-23T13:33:47.326Z,6.77
2018-12-23T13:36:15.400Z,6.60
2018-12-23T13:38:43.999Z,6.33
2018-12-23T13:41:49.249Z,6.70
2018-12-23T13:44:22.444Z,6.50
2018-12-23T13:47:26.710Z,7.37
2018-12-23T13:50:00.513Z,6.73
2018-12-23T13:54:37.373Z,6.87
2018-12-23T13:57:16.961Z,7.33
2018-12-23T13:59:55.604Z,7.70
2018-12-23T14:02:30.541Z,7.27
2018-12-23T14:06:07.250Z,6.90
2018-12-23T14:08:44.331Z,6.90
2018-12-23T14:11:18.334Z,6.90
2018-12-23T14:13:46.236Z,6.83
2018-12-23T14:16:14.142Z,7.10
2018-12-23T14:18:42.125Z,6.80
2018-12-23T14:21:09.985Z,6.60
2018-12-23T14:23:37.810Z,6.80
2018-12-23T14:26:05.837Z,6.17
2018-12-23T14:28:33.814Z,6.37
2018-12-23T14:31:01.865Z,6.30
2018-12-23T14:33:29.839Z,6.40
2018-12-23T14:35:58.438Z,5.97
2018-12-23T14:38:27.061Z,7.27
2018-12-23T14:40:55.665Z,6.50
2018-12-23T14:43:24.046Z,6.37
2018-12-23T14:45:52.574Z,6.13
2018-12-23T14:48:21.360Z,6.17
2018-12-23T14:50:49.832Z,6.83
2018-12-23T14:53:18.442Z,5.67
2018-12-23T14:55:47.101Z,6.03
2018-12-23T14:58:15.698Z,6.07
2018-12-23T15:00:44.340Z,6.03
2018-12-23T15:03:12.836Z,5.73
2018-12-23T15:05:42.043Z,6.00
2018-12-23T15:08:10.489Z,6.13
2018-12-23T15:10:38.892Z,6.27
2018-12-23T15:13:07.589Z,6.47
2018-12-23T15:15:35.958Z,6.53
2018-12-23T15:18:04.640Z,6.50
2018-12-23T15:20:32.441Z,6.43
2018-12-23T15:23:00.270Z,6.67
2018-12-23T15:25:28.911Z,5.73
2018-12-23T15:27:57.138Z,6.13
2018-12-23T15:30:25.622Z,6.80
2018-12-23T15:32:54.481Z,6.70
2018-12-23T15:35:23.134Z,7.60
2018-12-23T15:37:51.721Z,6.77
2018-12-23T15:40:20.140Z,6.70
2018-12-23T15:42:48.850Z,6.43
2018-12-23T15:45:17.469Z,6.60
2018-12-23T15:47:46.129Z,6.20
2018-12-23T15:50:14.765Z,7.13
2018-12-23T15:52:43.345Z,7.47
2018-12-23T15:55:12.037Z,7.10
2018-12-23T15:57:40.661Z,7.10
2018-12-23T16:00:09.089Z,7.43
2018-12-23T16:02:37.717Z,6.73
2018-12-23T16:05:06.195Z,7.60
2018-12-23T16:07:34.749Z,7.57
2018-12-23T16:10:03.447Z,7.93
2018-12-23T16:12:32.025Z,7.13
2018-12-23T16:15:00.506Z,10.07
2018-12-23T16:17:28.983Z,9.87
2018-12-23T16:19:57.601Z,9.53
2018-12-23T16:22:26.522Z,8.80
2018-12-23T16:24:55.065Z,7.77
2018-12-23T16:27:23.699Z,7.33
2018-12-23T16:29:52.349Z,7.67
2018-12-23T16:33:04.121Z,7.90
2018-12-23T16:35:32.531Z,7.40
2018-12-23T16:38:01.246Z,7.10
2018-12-23T16:40:29.560Z,7.17
2018-12-23T16:42:58.430Z,7.27
2018-12-23T16:45:27.189Z,6.93
2018-12-23T16:47:56.217Z,8.13
2018-12-23T16:50:24.644Z,7.37
2018-12-23T16:52:53.052Z,7.90
2018-12-23T16:55:21.419Z,8.60
2018-12-23T16:57:50.543Z,9.43
2018-12-23T17:00:20.496Z,9.40
2018-12-23T17:02:48.952Z,10.27
2018-12-23T17:05:17.296Z,10.43
2018-12-23T17:07:45.766Z,14.33
2018-12-23T17:10:15.259Z,13.80
2018-12-23T17:12:43.646Z,12.50
2018-12-23T17:15:11.974Z,11.73
2018-12-23T17:17:40.339Z,12.30
2018-12-23T17:20:10.416Z,12.03
2018-12-23T17:22:39.103Z,11.30
2018-12-23T17:25:07.652Z,11.27
2018-12-23T17:27:35.977Z,9.87
2018-12-23T17:30:05.119Z,13.23
2018-12-23T17:32:33.848Z,12.60
2018-12-23T17:35:02.219Z,11.40
2018-12-23T17:37:30.652Z,9.90
2018-12-23T17:39:59.257Z,10.33
2018-12-23T17:42:28.170Z,12.13
2018-12-23T17:44:57.450Z,10.27
2018-12-23T17:47:26.440Z,10.93
2018-12-23T17:49:54.997Z,14.00
2018-12-23T17:52:23.656Z,13.30
2018-12-23T17:54:52.163Z,12.37
2018-12-23T17:57:21.546Z,10.03
2018-12-23T17:59:50.398Z,10.30
2018-12-23T18:02:18.750Z,9.63
2018-12-23T18:04:47.089Z,10.30
2018-12-23T18:07:15.430Z,10.60
2018-12-23T18:09:43.934Z,9.97
2018-12-23T18:12:12.346Z,10.17
2018-12-23T18:14:40.814Z,9.60
2018-12-23T18:17:09.141Z,9.90
2018-12-23T18:19:37.458Z,9.77
2018-12-23T18:22:06.533Z,10.13
2018-12-23T18:24:35.217Z,10.03
2018-12-23T18:27:04.040Z,11.23
2018-12-23T18:29:32.791Z,11.80
2018-12-23T18:32:01.118Z,9.60
2018-12-23T18:34:29.502Z,9.57
2018-12-23T18:36:57.914Z,9.63
2018-12-23T18:39:26.351Z,10.17
2018-12-23T18:41:54.658Z,10.50
2018-12-23T18:44:23.024Z,10.10
2018-12-23T18:46:51.470Z,10.50
2018-12-23T18:49:20.216Z,45.80
2018-12-23T18:51:48.550Z,17.53
2018-12-23T18:54:17.236Z,16.57
2018-12-23T18:56:46.888Z,13.13
2018-12-23T18:59:16.563Z,13.80
2018-12-23T19:01:49.158Z,12.63
2018-12-23T19:04:17.526Z,13.17
2018-12-23T19:06:46.226Z,12.67
2018-12-23T19:09:18.011Z,12.17
2018-12-23T19:12:05.447Z,12.83
2018-12-23T19:14:58.594Z,12.83
2018-12-23T19:17:31.658Z,13.17
2018-12-23T19:20:19.318Z,13.97
2018-12-23T19:23:13.931Z,12.90
2018-12-23T19:25:49.634Z,13.77
2018-12-23T19:28:28.701Z,13.77
2018-12-23T19:31:16.559Z,16.07
2018-12-23T19:33:52.805Z,16.60
2018-12-23T19:36:47.085Z,17.73
2018-12-23T19:39:34.573Z,17.50
2018-12-23T19:42:17.265Z,17.30
2018-12-23T19:45:04.602Z,16.10
2018-12-23T19:47:50.643Z,17.13
2018-12-23T19:50:53.618Z,17.03
2018-12-23T19:53:46.596Z,16.57
2018-12-23T19:56:29.871Z,16.33
2018-12-23T19:59:23.775Z,14.90
2018-12-23T20:02:23.117Z,15.27
2018-12-23T20:05:13.364Z,16.13
2018-12-23T20:07:58.526Z,16.20
2018-12-23T20:10:48.622Z,16.07
2018-12-23T20:13:48.072Z,17.83
2018-12-23T20:16:47.514Z,17.83
2018-12-23T20:19:33.990Z,18.07
2018-12-23T20:22:33.690Z,18.33
2018-12-23T20:25:14.295Z,17.57
2018-12-23T20:28:13.748Z,16.70
2018-12-23T20:31:00.156Z,16.07
2018-12-23T20:33:51.011Z,16.60
2018-12-23T20:36:31.058Z,16.47
2018-12-23T20:39:21.509Z,15.23
2018-12-23T20:42:10.301Z,15.20
2018-12-23T20:44:56.540Z,15.57
2018-12-23T20:47:47.023Z,15.80
2018-12-23T20:50:23.109Z,15.67
2018-12-23T20:53:07.091Z,14.03
2018-12-23T20:56:10.885Z,15.13
2018-12-23T20:58:54.105Z,15.47
2018-12-23T21:01:40.618Z,18.23
2018-12-23T21:04:27.049Z,18.03
2018-12-23T21:07:13.190Z,17.67
2018-12-23T21:10:00.604Z,15.90
2018-12-23T21:12:51.154Z,15.67
2018-12-23T21:15:37.880Z,16.30
2018-12-23T21:18:34.739Z,17.77
2018-12-23T21:21:18.491Z,15.77
2018-12-23T21:24:11.823Z,15.10
2018-12-23T21:26:48.408Z,15.23
2018-12-23T21:29:27.255Z,15.00
2018-12-23T21:32:13.797Z,15.97
2018-12-23T21:35:07.416Z,15.33
2018-12-23T21:37:43.139Z,14.50
2018-12-23T21:40:33.404Z,17.40
2018-12-23T21:43:19.476Z,16.33
2018-12-23T21:46:13.143Z,16.50
2018-12-23T21:48:59.452Z,16.57
2018-12-23T21:51:49.527Z,16.13
2018-12-23T21:54:55.715Z,16.40
2018-12-23T21:57:58.772Z,16.57
2018-12-23T22:00:50.407Z,17.07
2018-12-23T22:03:35.041Z,17.30
2018-12-23T22:06:31.739Z,17.23
2018-12-23T22:09:18.046Z,16.17
2018-12-23T22:12:06.135Z,16.37
2018-12-23T22:14:34.944Z,16.37
2018-12-23T22:17:03.662Z,17.00
2018-12-23T22:19:32.846Z,16.30
2018-12-23T22:22:01.734Z,17.30
2018-12-23T22:24:30.543Z,16.83
2018-12-23T22:26:59.363Z,16.27
2018-12-23T22:29:27.987Z,17.67
2018-12-23T22:31:56.633Z,17.40
2018-12-23T22:34:26.153Z,18.97
2018-12-23T22:36:55.618Z,17.77
2018-12-23T22:39:24.106Z,18.17
2018-12-23T22:41:52.530Z,20.40
2018-12-23T22:44:20.871Z,21.70
2018-12-23T22:46:49.610Z,22.80
2018-12-23T22:49:18.468Z,22.17
2018-12-23T22:51:47.304Z,22.27
2018-12-23T22:54:16.402Z,21.77
2018-12-23T22:56:45.160Z,21.47
2018-12-23T22:59:14.094Z,19.40
2018-12-23T23:01:42.460Z,18.60
2018-12-23T23:04:11.239Z,19.23
2018-12-23T23:06:39.895Z,18.30
2018-12-23T23:09:08.888Z,17.60
2018-12-23T23:11:38.328Z,17.50
2018-12-23T23:14:06.999Z,17.30
2018-12-23T23:16:35.703Z,16.67
2018-12-23T23:19:04.035Z,16.43
2018-12-23T23:21:32.371Z,15.90
2018-12-23T23:24:01.315Z,16.07
2018-12-23T23:26:29.877Z,15.70
2018-12-23T23:28:58.231Z,15.63
2018-12-23T23:31:26.607Z,15.80
2018-12-23T23:33:54.946Z,16.17
2018-12-23T23:36:23.765Z,15.17
2018-12-23T23:38:52.095Z,16.30
2018-12-23T23:41:20.459Z,15.07
2018-12-23T23:43:49.586Z,15.63
2018-12-23T23:46:18.312Z,15.43
2018-12-23T23:48:47.126Z,14.90
2018-12-23T23:51:15.954Z,14.33
2018-12-23T23:53:44.498Z,15.00
2018-12-23T23:56:13.045Z,15.10
2018-12-23T23:58:41.869Z,14.03
